Time;durP1;ratioP1;P1;durP2;ratioP2;P2;SDS_P1;SDS_P2;PMS_P1;PMS_P2;Temp;Humidity;BMP_temperature;BMP_pressure;BME280_temperature;BME280_humidity;BME280_pressure;Samples;Min_cycle;Max_cycle;Signal;HPM_P1;HPM_P2
2022/03/26 00:01:04;;;;;;;10.45;8.05;;;20.30;47.20;;;;;;5110557;28;20035;-71
2022/03/26 00:03:30;;;;;;;10.93;8.00;;;20.30;47.20;;;;;;5110707;28;20100;-70
2022/03/26 00:05:56;;;;;;;10.77;8.32;;;20.30;47.20;;;;;;5090429;28;20042;-71
2022/03/26 00:08:21;;;;;;;9.85;7.93;;;20.30;47.20;;;;;;5109592;28;20039;-71
2022/03/26 00:10:47;;;;;;;9.32;7.72;;;20.30;47.30;;;;;;5110556;28;20625;-71
2022/03/26 00:13:13;;;;;;;11.43;7.80;;;20.20;47.10;;;;;;5110682;28;20054;-71
2022/03/26 00:15:39;;;;;;;10.25;8.00;;;20.20;47.10;;;;;;5110303;28;20044;-70
2022/03/26 00:18:05;;;;;;;11.75;7.78;;;20.20;47.10;;;;;;5109921;28;20020;-71
2022/03/26 00:20:31;;;;;;;12.77;8.43;;;20.20;47.10;;;;;;5091476;28;20058;-70
2022/03/26 00:22:56;;;;;;;10.27;7.65;;;20.20;47.10;;;;;;5108890;28;20053;-71
2022/03/26 00:25:22;;;;;;;11.70;8.25;;;20.20;47.10;;;;;;5110757;28;20402;-71
2022/03/26 00:27:49;;;;;;;13.48;8.38;;;20.20;47.10;;;;;;5110444;28;20035;-71
2022/03/26 00:30:15;;;;;;;11.80;8.05;;;20.20;47.10;;;;;;5110657;27;20031;-71
2022/03/26 00:32:40;;;;;;;10.27;7.78;;;20.20;47.10;;;;;;5109747;28;20038;-71
2022/03/26 00:35:09;;;;;;;11.35;8.45;;;20.20;47.10;;;;;;5113820;27;20047;-70
2022/03/26 00:37:35;;;;;;;10.60;7.95;;;20.10;47.00;;;;;;5106885;28;20080;-69
2022/03/26 00:40:01;;;;;;;10.25;7.93;;;20.10;47.00;;;;;;5087911;28;20474;-70
2022/03/26 00:42:27;;;;;;;9.65;7.90;;;20.10;47.00;;;;;;5091790;28;20077;-70
2022/03/26 00:44:52;;;;;;;10.35;8.07;;;20.10;47.00;;;;;;5092120;28;20058;-70
2022/03/26 00:47:18;;;;;;;10.90;8.00;;;20.10;47.00;;;;;;5091571;28;20047;-70
2022/03/26 00:49:44;;;;;;;10.57;7.65;;;20.10;47.00;;;;;;5109958;28;20522;-71
2022/03/26 00:52:09;;;;;;;11.32;7.57;;;20.10;47.00;;;;;;5109147;28;20039;-68
2022/03/26 00:54:35;;;;;;;10.20;7.70;;;20.10;47.00;;;;;;5110245;28;20489;-71
2022/03/26 00:57:01;;;;;;;12.52;8.45;;;20.10;47.00;;;;;;5092058;28;20092;-70
2022/03/26 00:59:27;;;;;;;10.95;8.32;;;20.10;47.00;;;;;;5089306;28;20031;-70
2022/03/26 01:01:53;;;;;;;11.00;8.60;;;20.00;46.90;;;;;;5092029;28;20085;-71
2022/03/26 01:04:19;;;;;;;12.82;8.48;;;20.00;46.90;;;;;;5110437;28;20047;-70
2022/03/26 01:06:45;;;;;;;12.25;8.40;;;20.00;46.90;;;;;;5090523;28;20047;-70
2022/03/26 01:09:11;;;;;;;10.20;7.70;;;20.00;46.90;;;;;;5106505;28;20039;-71
2022/03/26 01:11:37;;;;;;;11.90;8.52;;;20.00;46.90;;;;;;5108728;28;20059;-71
2022/03/26 01:14:02;;;;;;;9.98;8.23;;;20.00;46.90;;;;;;5110429;27;20044;-69
2022/03/26 01:16:28;;;;;;;10.27;7.82;;;20.00;46.90;;;;;;5091119;28;20486;-71
2022/03/26 01:18:56;;;;;;;10.02;7.95;;;20.00;46.90;;;;;;5109025;28;20032;-70
2022/03/26 01:21:22;;;;;;;11.55;8.48;;;20.00;46.90;;;;;;5107265;28;20106;-71
2022/03/26 01:23:49;;;;;;;9.98;8.30;;;20.00;46.80;;;;;;5107544;28;20044;-71
2022/03/26 01:26:17;;;;;;;11.20;8.43;;;20.00;46.90;;;;;;5108863;28;20153;-71
2022/03/26 01:28:43;;;;;;;13.27;8.60;;;20.00;46.80;;;;;;5108837;28;20031;-70
2022/03/26 01:31:09;;;;;;;12.07;8.38;;;19.90;46.90;;;;;;5122551;27;20046;-70
2022/03/26 01:33:35;;;;;;;11.85;8.57;;;19.90;46.80;;;;;;5108963;28;20028;-70
2022/03/26 01:36:02;;;;;;;10.93;7.95;;;19.90;46.80;;;;;;5109693;28;20125;-70
2022/03/26 01:38:28;;;;;;;10.63;8.75;;;19.90;46.90;;;;;;5089389;28;20066;-70
2022/03/26 01:40:54;;;;;;;10.52;7.95;;;19.90;46.80;;;;;;5109189;28;20425;-71
2022/03/26 01:43:19;;;;;;;10.55;8.27;;;19.90;46.90;;;;;;5109390;28;20054;-70
2022/03/26 01:45:45;;;;;;;11.35;8.18;;;19.90;46.80;;;;;;5108971;28;20123;-71
2022/03/26 01:48:11;;;;;;;11.88;8.20;;;19.90;46.90;;;;;;5109436;28;20038;-70
2022/03/26 01:50:36;;;;;;;13.32;8.40;;;19.90;46.90;;;;;;5108472;28;20474;-70
2022/03/26 01:53:03;;;;;;;11.18;8.35;;;19.90;46.90;;;;;;5110038;28;20497;-70
2022/03/26 01:55:29;;;;;;;11.57;8.52;;;19.80;46.70;;;;;;5113538;27;20036;-70
2022/03/26 01:57:55;;;;;;;12.02;8.75;;;19.80;46.70;;;;;;5078312;28;20042;-71
2022/03/26 02:00:21;;;;;;;11.80;8.65;;;19.80;46.70;;;;;;5110641;28;20050;-70
2022/03/26 02:02:47;;;;;;;10.80;8.27;;;19.80;46.70;;;;;;5113178;27;20032;-70
2022/03/26 02:05:15;;;;;;;12.38;8.75;;;19.80;46.70;;;;;;5095172;28;20474;-70
2022/03/26 02:07:45;;;;;;;9.73;7.95;;;19.80;46.70;;;;;;5112020;28;20233;-71
2022/03/26 02:10:13;;;;;;;12.13;9.02;;;19.80;46.70;;;;;;5111743;28;20055;-71
2022/03/26 02:12:39;;;;;;;12.48;8.82;;;19.80;46.70;;;;;;5112461;28;20090;-70
2022/03/26 02:15:07;;;;;;;14.10;9.07;;;19.80;46.70;;;;;;5113256;27;20039;-71
2022/03/26 02:17:33;;;;;;;10.15;8.32;;;19.70;46.70;;;;;;5112277;27;21741;-71
2022/03/26 02:20:01;;;;;;;11.32;8.35;;;19.80;46.70;;;;;;5112688;28;20070;-69
2022/03/26 02:22:28;;;;;;;14.63;9.20;;;19.80;46.70;;;;;;5093310;28;20032;-68
2022/03/26 02:24:55;;;;;;;12.00;8.50;;;19.80;46.70;;;;;;5112845;28;20066;-69
2022/03/26 02:27:22;;;;;;;11.75;8.95;;;19.70;46.60;;;;;;5113184;28;20067;-67
2022/03/26 02:29:48;;;;;;;13.07;9.38;;;19.80;46.70;;;;;;5113052;28;20473;-68
2022/03/26 02:32:14;;;;;;;12.35;8.93;;;19.70;46.60;;;;;;5093766;28;20043;-68
2022/03/26 02:34:40;;;;;;;13.45;9.77;;;19.70;46.60;;;;;;5092035;28;20042;-69
2022/03/26 02:37:05;;;;;;;11.95;9.05;;;19.70;46.60;;;;;;5111480;28;20040;-68
2022/03/26 02:39:31;;;;;;;13.52;9.50;;;19.80;46.70;;;;;;5112754;28;20039;-68
2022/03/26 02:41:57;;;;;;;12.90;9.75;;;19.70;46.60;;;;;;5112963;28;20031;-69
2022/03/26 02:44:23;;;;;;;14.80;9.75;;;19.70;46.60;;;;;;5094932;28;20370;-68
2022/03/26 02:46:49;;;;;;;14.52;10.55;;;19.70;46.60;;;;;;5093494;28;20047;-68
2022/03/26 02:49:15;;;;;;;13.63;10.02;;;19.70;46.60;;;;;;5091051;28;20445;-68
2022/03/26 02:51:42;;;;;;;11.68;9.68;;;19.70;46.60;;;;;;5112052;28;20769;-68
2022/03/26 02:54:18;;;;;;;13.35;9.45;;;19.70;46.50;;;;;;5108432;28;20501;-69
2022/03/26 02:56:48;;;;;;;13.65;10.18;;;19.70;46.60;;;;;;5110461;28;20070;-68
2022/03/26 02:59:14;;;;;;;14.60;10.23;;;19.70;46.60;;;;;;5111485;28;20096;-68
2022/03/26 03:01:40;;;;;;;13.70;9.88;;;19.70;46.60;;;;;;5107991;28;20470;-69
2022/03/26 03:04:05;;;;;;;12.73;10.05;;;19.70;46.60;;;;;;5092584;28;20039;-69
2022/03/26 03:06:32;;;;;;;13.20;10.40;;;19.70;46.60;;;;;;5111861;28;20057;-68
2022/03/26 03:08:57;;;;;;;15.68;10.15;;;19.70;46.60;;;;;;5110774;28;20497;-69
2022/03/26 03:11:24;;;;;;;13.77;9.55;;;19.60;46.60;;;;;;5110892;28;20047;-69
2022/03/26 03:13:50;;;;;;;14.02;10.00;;;19.60;46.60;;;;;;5110124;28;20482;-69
2022/03/26 03:16:16;;;;;;;13.48;9.82;;;19.60;47.40;;;;;;5111072;28;20036;-68
2022/03/26 03:18:41;;;;;;;15.10;9.93;;;19.60;47.40;;;;;;5110981;28;20181;-68
2022/03/26 03:21:08;;;;;;;14.80;9.95;;;19.60;46.60;;;;;;5111394;28;20101;-68
2022/03/26 03:23:33;;;;;;;14.27;10.23;;;19.60;46.60;;;;;;5110816;28;20047;-69
2022/03/26 03:25:59;;;;;;;13.40;9.68;;;19.60;46.70;;;;;;5111227;28;20047;-68
2022/03/26 03:28:25;;;;;;;14.57;10.52;;;19.60;46.70;;;;;;5093335;28;20042;-68
2022/03/26 03:30:51;;;;;;;15.23;10.55;;;19.60;46.70;;;;;;5111555;28;20035;-69
2022/03/26 03:33:17;;;;;;;14.90;10.52;;;19.60;46.70;;;;;;5110550;27;20048;-68
2022/03/26 03:35:43;;;;;;;14.38;10.13;;;19.60;46.70;;;;;;5111288;28;20027;-68
2022/03/26 03:38:09;;;;;;;14.48;10.32;;;19.60;46.70;;;;;;5110628;28;20146;-68
2022/03/26 03:40:35;;;;;;;14.57;10.23;;;19.60;46.70;;;;;;5110572;28;20122;-69
2022/03/26 03:43:01;;;;;;;15.13;10.82;;;19.50;46.60;;;;;;5110811;28;20031;-69
2022/03/26 03:45:27;;;;;;;13.85;10.43;;;19.50;46.70;;;;;;5109730;28;20027;-69
2022/03/26 03:47:52;;;;;;;15.20;10.68;;;19.50;46.60;;;;;;5105982;28;20039;-68
2022/03/26 03:50:18;;;;;;;17.05;11.07;;;19.50;46.60;;;;;;5110155;28;20034;-69
2022/03/26 03:52:44;;;;;;;16.67;10.23;;;19.50;46.60;;;;;;5109219;28;20043;-67
2022/03/26 03:55:10;;;;;;;15.07;10.57;;;19.50;46.60;;;;;;5110889;28;20035;-68
2022/03/26 03:57:42;;;;;;;16.58;10.57;;;19.50;46.60;;;;;;5111158;28;20066;-69
2022/03/26 04:00:13;;;;;;;14.73;11.05;;;19.50;46.60;;;;;;5109866;28;20059;-69
2022/03/26 04:02:40;;;;;;;13.65;10.52;;;19.50;46.60;;;;;;5109672;27;20063;-68
2022/03/26 04:05:09;;;;;;;13.80;10.65;;;19.50;46.60;;;;;;5112584;27;20046;-68
2022/03/26 04:07:38;;;;;;;13.93;10.57;;;19.50;46.60;;;;;;5109962;28;20114;-69
2022/03/26 04:10:07;;;;;;;14.50;10.60;;;19.50;46.60;;;;;;5110013;28;20027;-68
2022/03/26 04:12:38;;;;;;;14.63;10.23;;;19.50;46.60;;;;;;5110622;28;20056;-68
2022/03/26 04:15:05;;;;;;;14.50;10.95;;;19.50;46.70;;;;;;5110428;28;20036;-68
2022/03/26 04:17:32;;;;;;;16.90;11.52;;;19.50;46.60;;;;;;5092160;28;20070;-69
2022/03/26 04:19:58;;;;;;;15.18;10.73;;;19.50;46.60;;;;;;5091926;28;20081;-68
2022/03/26 04:22:24;;;;;;;16.15;10.73;;;19.50;46.60;;;;;;5109274;28;20068;-68
2022/03/26 04:24:49;;;;;;;16.00;10.60;;;19.50;46.60;;;;;;5110550;28;20071;-68
2022/03/26 04:27:15;;;;;;;17.40;11.23;;;19.50;46.60;;;;;;5110694;28;20480;-69
2022/03/26 04:29:41;;;;;;;16.35;10.77;;;19.50;46.60;;;;;;5110051;28;20050;-68
2022/03/26 04:32:07;;;;;;;14.35;10.13;;;19.50;46.60;;;;;;5092144;28;20050;-69
2022/03/26 04:34:33;;;;;;;13.77;10.27;;;19.40;46.60;;;;;;5091212;28;20058;-68
2022/03/26 04:36:58;;;;;;;15.50;10.32;;;19.50;46.70;;;;;;5107268;28;20114;-68
2022/03/26 04:39:24;;;;;;;15.45;10.30;;;19.40;46.60;;;;;;5109510;28;20028;-68
2022/03/26 04:41:50;;;;;;;14.68;10.43;;;19.50;46.60;;;;;;5109618;28;20036;-68
2022/03/26 04:44:16;;;;;;;16.40;11.23;;;19.40;46.60;;;;;;5110270;28;20383;-67
2022/03/26 04:46:42;;;;;;;15.98;11.00;;;19.40;46.60;;;;;;5110066;28;20044;-68
2022/03/26 04:49:08;;;;;;;14.48;10.48;;;19.50;46.60;;;;;;5108664;28;20118;-69
2022/03/26 04:51:34;;;;;;;14.15;10.52;;;19.40;46.60;;;;;;5109427;28;20035;-68
2022/03/26 04:53:59;;;;;;;16.02;11.35;;;19.40;46.60;;;;;;5108612;28;20062;-68
2022/03/26 04:56:25;;;;;;;14.73;10.50;;;19.40;46.60;;;;;;5109064;28;20477;-69
2022/03/26 04:58:53;;;;;;;15.13;10.90;;;19.40;46.60;;;;;;5073879;28;20071;-69
2022/03/26 05:01:18;;;;;;;13.73;10.37;;;19.40;46.60;;;;;;5109469;28;20031;-68
2022/03/26 05:03:44;;;;;;;16.42;11.10;;;19.40;46.50;;;;;;5108366;28;20679;-69
2022/03/26 05:06:10;;;;;;;14.60;10.63;;;19.40;46.50;;;;;;5108881;27;20028;-68
2022/03/26 05:08:36;;;;;;;13.95;10.80;;;19.40;46.60;;;;;;5108185;28;20047;-68
2022/03/26 05:11:01;;;;;;;16.35;10.77;;;19.40;46.60;;;;;;5109121;28;20059;-68
2022/03/26 05:13:27;;;;;;;17.00;11.10;;;19.40;46.50;;;;;;5109735;28;20050;-68
2022/03/26 05:15:53;;;;;;;19.08;11.52;;;19.40;46.50;;;;;;5090958;28;20049;-68
2022/03/26 05:18:18;;;;;;;17.35;11.07;;;19.40;46.50;;;;;;5109316;28;20031;-68
2022/03/26 05:20:44;;;;;;;16.35;10.77;;;19.40;46.50;;;;;;5109709;28;20035;-69
2022/03/26 05:23:10;;;;;;;15.45;10.93;;;19.40;46.40;;;;;;5108910;28;20032;-68
2022/03/26 05:25:36;;;;;;;15.13;10.93;;;19.40;46.50;;;;;;5109084;28;20079;-68
2022/03/26 05:28:02;;;;;;;16.35;11.15;;;19.40;46.40;;;;;;5105776;28;20035;-68
2022/03/26 05:30:29;;;;;;;14.80;10.80;;;19.40;46.40;;;;;;5089856;28;20118;-69
2022/03/26 05:32:55;;;;;;;14.82;10.45;;;19.40;46.50;;;;;;5107705;28;20038;-68
2022/03/26 05:35:21;;;;;;;15.13;10.88;;;19.40;46.50;;;;;;5109810;28;20470;-69
2022/03/26 05:37:49;;;;;;;15.18;11.18;;;19.40;46.50;;;;;;5108823;28;20494;-67
2022/03/26 05:40:17;;;;;;;18.10;10.65;;;19.40;46.40;;;;;;5108673;28;20038;-68
2022/03/26 05:42:43;;;;;;;15.82;11.18;;;19.40;46.40;;;;;;5109459;28;20157;-69
2022/03/26 05:45:09;;;;;;;17.30;10.93;;;19.40;46.40;;;;;;5108256;28;20454;-68
2022/03/26 05:47:36;;;;;;;15.23;11.10;;;19.40;46.40;;;;;;5108972;28;20043;-68
2022/03/26 05:50:04;;;;;;;15.75;10.40;;;19.40;46.40;;;;;;5108265;28;20040;-69
2022/03/26 05:52:30;;;;;;;15.05;10.32;;;19.40;46.40;;;;;;5108881;28;20538;-68
2022/03/26 05:54:55;;;;;;;17.08;11.32;;;19.40;46.40;;;;;;5109067;28;20146;-68
2022/03/26 05:57:21;;;;;;;15.82;10.55;;;19.50;46.30;;;;;;5109628;28;20039;-68
2022/03/26 05:59:48;;;;;;;16.00;10.93;;;19.50;46.30;;;;;;5108678;28;20038;-68
2022/03/26 06:02:14;;;;;;;14.93;10.25;;;19.50;46.20;;;;;;5109442;28;20039;-68
2022/03/26 06:04:44;;;;;;;15.88;10.60;;;19.50;46.20;;;;;;5108516;28;20134;-68
2022/03/26 06:07:10;;;;;;;16.42;10.80;;;19.60;46.20;;;;;;5108275;28;20108;-68
2022/03/26 06:09:37;;;;;;;14.30;10.85;;;19.50;46.10;;;;;;5108727;28;20065;-68
2022/03/26 06:12:04;;;;;;;15.40;10.40;;;19.50;46.10;;;;;;5107917;28;20051;-68
2022/03/26 06:14:30;;;;;;;15.65;10.88;;;19.50;46.10;;;;;;5106440;28;20039;-67
2022/03/26 06:16:56;;;;;;;15.77;10.40;;;19.60;46.30;;;;;;5108667;28;20088;-68
2022/03/26 06:19:22;;;;;;;15.80;10.32;;;19.50;46.20;;;;;;5108679;28;20047;-69
2022/03/26 06:21:48;;;;;;;15.82;10.32;;;19.50;46.20;;;;;;5107369;28;20027;-69
2022/03/26 06:24:14;;;;;;;14.30;10.30;;;19.50;46.20;;;;;;5109141;28;20490;-68
2022/03/26 06:26:43;;;;;;;14.70;10.30;;;19.50;46.30;;;;;;5108400;28;20047;-69
2022/03/26 06:29:10;;;;;;;14.63;9.82;;;19.50;46.30;;;;;;5108460;28;20070;-68
2022/03/26 06:31:36;;;;;;;13.65;9.60;;;19.50;46.20;;;;;;5108126;28;20088;-69
2022/03/26 06:34:01;;;;;;;19.45;11.10;;;19.50;46.20;;;;;;5091061;28;20047;-69
2022/03/26 06:36:27;;;;;;;14.48;9.70;;;19.60;46.30;;;;;;5108256;28;20043;-68
2022/03/26 06:38:53;;;;;;;15.70;10.85;;;19.50;46.20;;;;;;5108250;28;20035;-67
2022/03/26 06:41:19;;;;;;;15.18;10.60;;;19.60;46.30;;;;;;5111669;28;20237;-68
2022/03/26 06:43:45;;;;;;;14.05;10.23;;;19.60;46.30;;;;;;5112395;28;20126;-69
2022/03/26 06:46:12;;;;;;;17.17;11.10;;;19.60;46.30;;;;;;5106582;28;20209;-71
2022/03/26 06:48:38;;;;;;;17.13;11.15;;;19.60;46.40;;;;;;5091002;28;20118;-71
2022/03/26 06:51:06;;;;;;;13.65;10.07;;;19.60;46.50;;;;;;5107577;28;20112;-71
2022/03/26 06:53:36;;;;;;;14.40;10.55;;;19.70;46.70;;;;;;5111483;28;20515;-72
2022/03/26 06:56:04;;;;;;;14.65;9.98;;;19.70;46.90;;;;;;5111851;28;20027;-71
2022/03/26 06:58:30;;;;;;;14.48;9.60;;;19.70;47.00;;;;;;5111306;28;20047;-70
2022/03/26 07:00:57;;;;;;;12.57;9.30;;;19.80;47.10;;;;;;5111340;28;20055;-71
2022/03/26 07:03:24;;;;;;;14.82;9.90;;;19.80;47.20;;;;;;5106792;28;20603;-72
2022/03/26 07:05:50;;;;;;;13.70;9.52;;;19.90;47.30;;;;;;5092382;27;20042;-70
2022/03/26 07:08:16;;;;;;;15.50;10.40;;;19.90;47.40;;;;;;5091010;28;20409;-69
2022/03/26 07:10:45;;;;;;;16.05;9.68;;;19.90;47.50;;;;;;5113326;27;20031;-69
2022/03/26 07:13:11;;;;;;;13.77;9.15;;;19.90;47.50;;;;;;5110922;28;20046;-69
2022/03/26 07:15:37;;;;;;;17.25;9.55;;;20.00;47.70;;;;;;5111780;28;20040;-69
2022/03/26 07:18:02;;;;;;;16.45;9.88;;;19.90;47.70;;;;;;5110713;28;20516;-69
2022/03/26 07:20:29;;;;;;;14.25;9.70;;;19.90;47.70;;;;;;5114921;27;20050;-70
2022/03/26 07:22:55;;;;;;;15.15;10.05;;;20.00;47.80;;;;;;5109765;28;20403;-70
2022/03/26 07:25:20;;;;;;;16.15;10.15;;;20.00;47.90;;;;;;5110662;27;20043;-69
2022/03/26 07:27:47;;;;;;;12.52;9.10;;;20.00;47.90;;;;;;5111100;28;20071;-70
2022/03/26 07:30:13;;;;;;;14.80;9.43;;;20.00;47.90;;;;;;5112217;27;20031;-71
2022/03/26 07:32:40;;;;;;;13.55;9.38;;;20.10;48.00;;;;;;5111096;28;20035;-71
2022/03/26 07:35:06;;;;;;;12.00;8.70;;;20.10;48.00;;;;;;5109286;27;20032;-70
2022/03/26 07:37:31;;;;;;;13.50;8.98;;;20.10;47.90;;;;;;5091745;28;20047;-69
2022/03/26 07:40:00;;;;;;;13.20;8.85;;;20.10;47.90;;;;;;5109087;28;20042;-67
2022/03/26 07:42:26;;;;;;;12.15;9.07;;;20.20;47.90;;;;;;5125731;27;20031;-71
2022/03/26 07:44:52;;;;;;;15.02;10.23;;;20.20;47.70;;;;;;5111008;28;20043;-74
2022/03/26 07:47:18;;;;;;;16.40;10.10;;;20.20;47.70;;;;;;5106090;28;20041;-71
2022/03/26 07:49:44;;;;;;;18.40;10.40;;;20.20;47.60;;;;;;5092726;28;20062;-70
2022/03/26 07:52:10;;;;;;;18.08;10.65;;;20.20;47.60;;;;;;5109933;28;20837;-69
2022/03/26 07:54:35;;;;;;;18.05;10.38;;;20.30;47.60;;;;;;5112073;28;20044;-68
2022/03/26 07:57:01;;;;;;;14.75;10.18;;;20.30;47.80;;;;;;5112009;28;20086;-68
2022/03/26 07:59:27;;;;;;;18.42;11.35;;;20.30;47.90;;;;;;5111484;28;20040;-68
2022/03/26 08:01:52;;;;;;;18.30;10.57;;;20.30;48.10;;;;;;5093091;28;20482;-68
2022/03/26 08:04:18;;;;;;;19.80;10.80;;;20.30;48.20;;;;;;5112884;27;20047;-68
2022/03/26 08:06:44;;;;;;;17.52;10.07;;;20.30;48.30;;;;;;5112003;28;20069;-68
2022/03/26 08:09:09;;;;;;;15.93;10.18;;;20.40;48.40;;;;;;5092206;28;20043;-68
2022/03/26 08:11:35;;;;;;;15.43;10.13;;;20.40;48.50;;;;;;5109367;28;20089;-69
2022/03/26 08:14:00;;;;;;;14.95;9.88;;;20.40;48.50;;;;;;5110918;28;20044;-68
2022/03/26 08:16:26;;;;;;;20.00;10.07;;;20.40;48.50;;;;;;5112082;27;20043;-68
2022/03/26 08:18:52;;;;;;;13.90;10.10;;;20.40;48.50;;;;;;5110161;28;20046;-68
2022/03/26 08:21:18;;;;;;;18.85;10.02;;;20.50;48.60;;;;;;5110035;28;20122;-69
2022/03/26 08:23:43;;;;;;;13.15;9.02;;;20.50;48.60;;;;;;5108870;28;20494;-70
2022/03/26 08:26:29;;;;;;;12.05;9.52;;;20.50;48.50;;;;;;5093457;28;20043;-66
2022/03/26 08:28:58;;;;;;;15.20;9.82;;;20.50;48.40;;;;;;5110236;28;20552;-67
2022/03/26 08:31:25;;;;;;;;;;;20.60;48.60;;;;;;5111633;28;20035;-67
2022/03/26 08:33:51;;;;;;;13.10;9.27;;;20.60;48.70;;;;;;5109165;28;20030;-68
2022/03/26 08:36:17;;;;;;;14.32;9.10;;;20.60;48.60;;;;;;5075796;28;20055;-68
2022/03/26 08:38:45;;;;;;;15.05;9.10;;;20.60;48.60;;;;;;5106327;28;20494;-70
2022/03/26 08:41:19;;;;;;;14.50;8.77;;;20.70;48.70;;;;;;5109526;28;20035;-71
2022/03/26 08:43:45;;;;;;;13.95;9.20;;;20.70;48.80;;;;;;5113187;27;20050;-70
2022/03/26 08:46:11;;;;;;;13.50;8.20;;;20.70;48.80;;;;;;5113306;27;20050;-74
2022/03/26 08:48:37;;;;;;;12.50;8.77;;;20.80;48.80;;;;;;5092748;28;20028;-68
2022/03/26 08:51:04;;;;;;;12.30;7.97;;;20.80;48.80;;;;;;5110370;28;20047;-70
2022/03/26 08:53:29;;;;;;;16.40;8.05;;;20.80;48.80;;;;;;5106496;28;20504;-68
2022/03/26 08:55:55;;;;;;;9.82;7.82;;;20.80;48.80;;;;;;5109472;28;20032;-67
2022/03/26 08:58:22;;;;;;;12.15;8.25;;;20.90;48.90;;;;;;5106818;28;20031;-67
2022/03/26 09:00:50;;;;;;;12.27;7.82;;;20.90;48.90;;;;;;5113058;27;20172;-69
2022/03/26 09:03:20;;;;;;;9.77;7.88;;;20.90;48.90;;;;;;5111543;27;20504;-68
2022/03/26 09:05:47;;;;;;;11.63;7.32;;;20.90;48.80;;;;;;5086004;28;20169;-67
2022/03/26 09:08:13;;;;;;;11.82;7.75;;;20.90;48.90;;;;;;5108862;28;20118;-68
2022/03/26 09:10:38;;;;;;;11.93;7.43;;;21.00;49.00;;;;;;5112141;27;20496;-68
2022/03/26 09:13:04;;;;;;;12.20;7.90;;;21.00;49.00;;;;;;5111121;27;20409;-68
2022/03/26 09:15:30;;;;;;;10.23;7.20;;;21.00;48.90;;;;;;5092735;27;20504;-69
2022/03/26 09:17:57;;;;;;;11.90;7.75;;;21.00;48.90;;;;;;5093569;28;20032;-70
2022/03/26 09:20:22;;;;;;;11.57;7.85;;;21.00;48.90;;;;;;5092139;28;20156;-69
2022/03/26 09:22:48;;;;;;;12.13;7.32;;;21.00;49.70;;;;;;5089928;28;20874;-70
2022/03/26 09:25:16;;;;;;;9.95;7.22;;;21.10;49.00;;;;;;5107520;28;20039;-69
2022/03/26 09:27:42;;;;;;;10.23;7.38;;;21.10;49.00;;;;;;5108528;28;20063;-73
2022/03/26 09:30:08;;;;;;;16.17;7.03;;;21.10;48.90;;;;;;5107157;27;20132;-68
2022/03/26 09:32:35;;;;;;;10.55;7.25;;;21.10;48.80;;;;;;5090100;28;20490;-69
2022/03/26 09:35:00;;;;;;;10.40;7.55;;;21.10;48.70;;;;;;5108062;27;20056;-68
2022/03/26 09:37:26;;;;;;;12.13;7.88;;;21.20;48.60;;;;;;5108806;28;20171;-71
2022/03/26 09:39:54;;;;;;;12.25;6.70;;;21.20;48.60;;;;;;5108637;28;20023;-71
2022/03/26 09:42:22;;;;;;;11.60;7.70;;;21.20;48.50;;;;;;5108379;28;20039;-70
2022/03/26 09:44:50;;;;;;;12.88;7.47;;;21.20;48.50;;;;;;5114065;27;20114;-70
2022/03/26 09:47:16;;;;;;;11.60;7.30;;;21.20;48.50;;;;;;5086906;28;20035;-70
2022/03/26 09:49:42;;;;;;;16.40;7.88;;;21.20;48.50;;;;;;5108081;28;20062;-68
2022/03/26 09:52:08;;;;;;;17.45;7.75;;;21.20;48.40;;;;;;5108059;28;20845;-69
2022/03/26 09:54:36;;;;;;;10.43;7.28;;;21.20;48.40;;;;;;5108530;28;20064;-69
2022/03/26 09:57:03;;;;;;;13.70;7.30;;;21.20;48.40;;;;;;5074092;28;20071;-70
2022/03/26 09:59:29;;;;;;;12.65;7.57;;;21.20;48.40;;;;;;5090227;28;20252;-72
2022/03/26 10:01:54;;;;;;;11.43;7.78;;;21.20;48.40;;;;;;5107851;28;20162;-69
2022/03/26 10:04:26;;;;;;;12.30;7.43;;;21.20;48.30;;;;;;5116148;28;20034;-69
2022/03/26 10:06:54;;;;;;;13.88;7.25;;;21.20;48.20;;;;;;5107946;28;20418;-69
2022/03/26 10:09:32;;;;;;;;;;;21.30;48.20;;;;;;5106516;28;20035;-69
2022/03/26 10:12:06;;;;;;;13.32;7.07;;;21.20;47.90;;;;;;5108255;28;19915;-69
2022/03/26 10:14:43;;;;;;;10.73;6.63;;;21.20;48.00;;;;;;5116486;27;20062;-69
2022/03/26 10:17:17;;;;;;;11.77;7.28;;;21.30;48.00;;;;;;5112911;27;20038;-69
2022/03/26 10:19:53;;;;;;;11.70;6.72;;;21.30;48.00;;;;;;5092891;28;20035;-69
2022/03/26 10:22:40;;;;;;;10.73;6.80;;;21.30;47.90;;;;;;5113849;27;20032;-69
2022/03/26 10:25:07;;;;;;;9.52;6.50;;;21.30;47.80;;;;;;5109952;28;20036;-69
2022/03/26 10:27:42;;;;;;;10.75;6.90;;;21.30;47.90;;;;;;5114152;27;20097;-70
2022/03/26 10:30:16;;;;;;;9.27;6.70;;;21.30;47.80;;;;;;5113351;27;20027;-68
2022/03/26 10:32:45;;;;;;;12.15;6.88;;;21.30;47.70;;;;;;5115243;27;20445;-69
2022/03/26 10:35:17;;;;;;;10.10;7.05;;;21.30;47.60;;;;;;5112367;27;20367;-69
2022/03/26 10:38:03;;;;;;;9.68;6.57;;;21.30;47.60;;;;;;5111928;28;20510;-68
2022/03/26 10:40:30;;;;;;;12.60;6.40;;;21.30;47.50;;;;;;5112255;27;20036;-69
2022/03/26 10:43:06;;;;;;;9.18;5.93;;;21.30;47.50;;;;;;5091933;28;20687;-69
2022/03/26 10:45:55;;;;;;;10.15;6.15;;;21.30;47.50;;;;;;5093278;28;20512;-68
2022/03/26 10:48:29;;;;;;;10.77;6.53;;;21.30;47.30;;;;;;5094800;27;20043;-69
2022/03/26 10:51:00;;;;;;;10.25;6.05;;;21.30;47.40;;;;;;5112096;28;20024;-68
2022/03/26 10:53:40;;;;;;;10.32;6.15;;;21.30;47.30;;;;;;5112045;27;20047;-69
2022/03/26 10:56:08;;;;;;;8.90;5.97;;;21.40;47.40;;;;;;5109467;27;20043;-69
2022/03/26 10:58:35;;;;;;;9.60;6.07;;;21.40;47.40;;;;;;5110606;27;20397;-68
2022/03/26 11:01:02;;;;;;;12.47;6.07;;;21.40;47.40;;;;;;5111692;28;20031;-69
2022/03/26 11:03:28;;;;;;;11.35;5.80;;;21.40;47.30;;;;;;5094425;28;20296;-68
2022/03/26 11:05:56;;;;;;;10.50;5.78;;;21.40;47.30;;;;;;5094309;28;20537;-67
2022/03/26 11:08:30;;;;;;;9.38;5.60;;;21.40;47.20;;;;;;5110161;28;20389;-69
2022/03/26 11:10:59;;;;;;;6.40;5.60;;;21.40;47.20;;;;;;5111523;28;20044;-68
2022/03/26 11:13:27;;;;;;;9.50;5.68;;;21.40;47.20;;;;;;5093465;28;20047;-69
2022/03/26 11:16:04;;;;;;;8.38;5.47;;;21.40;47.10;;;;;;5092433;28;20043;-69
2022/03/26 11:19:11;;;;;;;9.85;6.15;;;21.40;47.00;;;;;;5093157;28;20047;-68
2022/03/26 11:21:55;;;;;;;10.75;5.88;;;21.40;46.90;;;;;;5071768;28;20160;-69
2022/03/26 11:24:58;;;;;;;8.02;5.20;;;21.40;47.00;;;;;;5110657;28;20115;-69
2022/03/26 11:27:45;;;;;;;7.68;5.85;;;21.40;46.80;;;;;;5109547;28;20040;-69
2022/03/26 11:30:19;;;;;;;8.70;5.82;;;21.40;46.90;;;;;;5091578;28;20035;-69
2022/03/26 11:32:46;;;;;;;8.60;5.45;;;21.40;46.80;;;;;;5111834;27;20489;-69
2022/03/26 11:35:16;;;;;;;8.00;5.45;;;21.40;46.80;;;;;;5111305;28;20047;-69
2022/03/26 11:38:02;;;;;;;7.05;5.43;;;21.40;46.70;;;;;;5110167;27;20035;-68
2022/03/26 11:40:54;;;;;;;8.77;5.28;;;21.40;46.60;;;;;;5091997;28;20506;-68
2022/03/26 11:43:53;;;;;;;11.75;5.32;;;21.40;46.50;;;;;;5110495;28;20045;-68
2022/03/26 11:52:20;;;;;;;7.20;5.00;;;21.50;46.50;;;;;;5109375;28;20071;-68
2022/03/26 11:54:48;;;;;;;6.50;4.60;;;21.50;46.40;;;;;;5092710;28;20048;-67
2022/03/26 11:57:18;;;;;;;6.70;5.13;;;21.50;46.50;;;;;;5107979;28;20028;-69
2022/03/26 11:59:45;;;;;;;9.32;5.18;;;21.50;46.40;;;;;;5109888;28;20061;-71
2022/03/26 12:02:17;;;;;;;8.38;5.40;;;21.50;46.40;;;;;;5109954;28;20039;-68
2022/03/26 12:04:48;;;;;;;11.90;5.13;;;21.60;46.40;;;;;;5111350;27;20046;-67
2022/03/26 12:07:15;;;;;;;6.88;4.65;;;21.60;46.40;;;;;;5110479;28;20437;-65
2022/03/26 12:09:41;;;;;;;9.25;5.32;;;21.60;46.40;;;;;;5109049;28;20039;-64
2022/03/26 12:12:10;;;;;;;10.38;4.95;;;21.60;46.40;;;;;;5107957;28;20047;-64
2022/03/26 12:15:08;;;;;;;9.02;6.38;;;21.70;46.70;;;;;;5109611;28;20055;-65
2022/03/26 12:18:11;;;;;;;12.93;4.95;;;21.70;47.00;;;;;;5106273;28;20082;-65
2022/03/26 12:20:45;;;;;;;7.70;5.20;;;21.80;47.20;;;;;;5110567;27;20498;-66
2022/03/26 12:23:19;;;;;;;6.50;4.60;;;21.90;47.10;;;;;;5092024;28;20054;-64
2022/03/26 12:25:58;;;;;;;8.05;5.00;;;22.00;47.00;;;;;;5110280;28;20032;-63
2022/03/26 12:28:29;;;;;;;10.73;5.00;;;22.10;46.90;;;;;;5108291;27;20042;-65
2022/03/26 12:31:04;;;;;;;8.10;4.97;;;22.20;46.80;;;;;;5109577;28;20383;-69
2022/03/26 12:33:42;;;;;;;12.40;5.40;;;22.30;46.70;;;;;;5107364;28;20044;-65
2022/03/26 12:36:09;;;;;;;12.48;5.15;;;22.40;46.40;;;;;;5107865;27;20044;-66
2022/03/26 12:38:35;;;;;;;11.18;5.47;;;22.60;46.30;;;;;;5107843;28;20080;-67
2022/03/26 12:41:04;;;;;;;10.50;5.45;;;22.70;45.90;;;;;;5109866;28;20144;-65
2022/03/26 12:43:30;;;;;;;15.43;5.20;;;22.90;45.50;;;;;;5091706;28;20500;-71
2022/03/26 12:45:59;;;;;;;8.65;5.45;;;23.10;45.20;;;;;;5110094;28;20054;-71